createdAt,value
2019-05-26T00:00:59.138Z,0.00
2019-05-26T00:01:59.097Z,0.00
2019-05-26T00:02:59.088Z,0.00
2019-05-26T00:03:59.087Z,0.00
2019-05-26T00:04:59.069Z,0.00
2019-05-26T00:05:59.086Z,0.00
2019-05-26T00:06:59.049Z,0.00
2019-05-26T00:07:59.041Z,0.00
2019-05-26T00:08:59.030Z,0.00
2019-05-26T00:09:59.106Z,0.00
2019-05-26T00:10:59.033Z,0.00
2019-05-26T00:11:58.997Z,0.00
2019-05-26T00:12:58.984Z,0.00
2019-05-26T00:13:58.984Z,0.00
2019-05-26T00:14:58.958Z,0.00
2019-05-26T00:15:58.979Z,0.00
2019-05-26T00:16:58.938Z,0.00
2019-05-26T00:17:58.934Z,0.00
2019-05-26T00:18:58.921Z,0.00
2019-05-26T00:19:58.907Z,0.00
2019-05-26T00:20:58.932Z,0.00
2019-05-26T00:21:58.914Z,0.00
2019-05-26T00:22:58.870Z,0.00
2019-05-26T00:23:58.857Z,0.00
2019-05-26T00:24:58.848Z,0.00
2019-05-26T00:25:58.876Z,0.00
2019-05-26T00:26:58.830Z,0.00
2019-05-26T00:27:58.820Z,0.00
2019-05-26T00:28:58.801Z,0.00
2019-05-26T00:29:58.800Z,0.00
2019-05-26T00:30:58.861Z,0.00
2019-05-26T00:31:58.775Z,0.00
2019-05-26T00:32:58.763Z,0.00
2019-05-26T00:33:58.752Z,0.00
2019-05-26T00:34:58.738Z,0.00
2019-05-26T00:35:58.772Z,0.00
2019-05-26T00:36:58.713Z,0.00
2019-05-26T00:37:58.710Z,0.00
2019-05-26T00:38:58.714Z,0.00
2019-05-26T00:39:58.689Z,0.00
2019-05-26T00:40:58.678Z,0.00
2019-05-26T00:41:58.713Z,0.00
2019-05-26T00:42:58.653Z,0.00
2019-05-26T00:43:58.645Z,0.00
2019-05-26T00:44:58.633Z,0.00
2019-05-26T00:45:58.618Z,0.00
2019-05-26T00:46:58.638Z,0.00
2019-05-26T00:47:58.641Z,0.00
2019-05-26T00:48:58.581Z,0.00
2019-05-26T00:49:58.655Z,0.00
2019-05-26T00:50:58.565Z,0.00
2019-05-26T00:51:58.769Z,0.00
2019-05-26T00:52:58.544Z,0.00
2019-05-26T00:53:58.526Z,0.00
2019-05-26T00:54:58.522Z,0.00
2019-05-26T00:55:58.505Z,0.00
2019-05-26T00:56:58.529Z,0.00
2019-05-26T00:57:58.489Z,0.00
2019-05-26T00:58:58.480Z,0.00
2019-05-26T00:59:58.460Z,0.00
2019-05-26T01:00:58.448Z,0.00
2019-05-26T01:01:58.481Z,0.00
2019-05-26T01:02:58.469Z,0.00
2019-05-26T01:03:58.426Z,0.00
2019-05-26T01:04:58.419Z,0.00
2019-05-26T01:05:58.458Z,0.00
2019-05-26T01:06:58.386Z,0.00
2019-05-26T01:08:06.193Z,0.00
2019-05-26T01:08:59.386Z,0.00
2019-05-26T01:09:58.364Z,0.00
2019-05-26T01:11:01.254Z,0.00
2019-05-26T01:11:58.336Z,0.00
2019-05-26T01:12:58.335Z,0.00
2019-05-26T01:13:58.342Z,0.00
2019-05-26T01:14:58.296Z,0.00
2019-05-26T01:15:58.292Z,0.00
2019-05-26T01:16:58.283Z,0.00
2019-05-26T01:17:58.265Z,0.00
2019-05-26T01:18:58.289Z,0.00
2019-05-26T01:19:58.247Z,0.00
2019-05-26T01:20:58.233Z,0.00
2019-05-26T01:21:58.227Z,0.00
2019-05-26T01:22:58.214Z,0.00
2019-05-26T01:23:58.203Z,0.00
2019-05-26T01:24:58.226Z,0.00
2019-05-26T01:25:58.177Z,0.00
2019-05-26T01:26:58.169Z,0.00
2019-05-26T01:27:58.152Z,0.00
2019-05-26T01:28:58.143Z,0.00
2019-05-26T01:29:58.190Z,0.00
2019-05-26T01:30:58.128Z,0.00
2019-05-26T01:31:58.111Z,0.00
2019-05-26T01:32:58.108Z,0.00
2019-05-26T01:33:58.092Z,0.00
2019-05-26T01:34:58.118Z,0.00
2019-05-26T01:35:58.071Z,0.00
2019-05-26T01:36:58.061Z,0.00
2019-05-26T01:37:58.046Z,0.00
2019-05-26T01:38:58.032Z,0.00
2019-05-26T01:39:58.021Z,0.00
2019-05-26T01:40:58.032Z,0.00
2019-05-26T01:41:58.033Z,0.00
2019-05-26T01:42:58.004Z,0.00
2019-05-26T01:43:57.985Z,0.00
2019-05-26T01:44:57.976Z,0.00
2019-05-26T01:45:58.024Z,0.00
2019-05-26T01:46:57.984Z,0.00
2019-05-26T01:47:57.942Z,0.00
2019-05-26T01:48:57.931Z,0.00
2019-05-26T01:49:57.929Z,0.00
2019-05-26T01:50:57.906Z,0.00
2019-05-26T01:51:57.957Z,0.00
2019-05-26T01:52:57.887Z,0.00
2019-05-26T01:53:57.893Z,0.00
2019-05-26T01:54:57.867Z,0.00
2019-05-26T01:55:57.856Z,0.00
2019-05-26T01:56:57.884Z,0.00
2019-05-26T01:57:57.828Z,0.00
2019-05-26T01:58:57.817Z,0.00
2019-05-26T01:59:57.811Z,0.00
2019-05-26T02:00:57.810Z,0.00
2019-05-26T02:01:58.918Z,0.00
2019-05-26T02:02:57.796Z,0.00
2019-05-26T02:03:57.787Z,0.00
2019-05-26T02:04:57.759Z,0.00
2019-05-26T02:05:57.751Z,0.00
2019-05-26T02:06:57.771Z,0.00
2019-05-26T02:07:57.729Z,0.00
2019-05-26T02:08:57.715Z,0.00
2019-05-26T02:09:57.696Z,0.00
2019-05-26T02:10:57.695Z,0.00
2019-05-26T02:11:57.712Z,0.00
2019-05-26T02:12:57.663Z,0.00
2019-05-26T02:13:57.660Z,0.00
2019-05-26T02:14:57.653Z,0.00
2019-05-26T02:15:57.646Z,0.00
2019-05-26T02:16:57.661Z,0.00
2019-05-26T02:17:57.612Z,0.00
2019-05-26T02:18:57.601Z,0.00
2019-05-26T02:19:57.627Z,0.00
2019-05-26T02:20:57.630Z,4.00
2019-05-26T02:21:57.787Z,4.00
2019-05-26T02:22:57.563Z,4.00
2019-05-26T02:23:57.549Z,0.00
2019-05-26T02:24:57.537Z,0.00
2019-05-26T02:25:57.531Z,4.00
2019-05-26T02:26:57.519Z,4.00
2019-05-26T02:27:57.619Z,4.00
2019-05-26T02:28:57.498Z,4.00
2019-05-26T02:29:57.487Z,4.00
2019-05-26T02:30:57.475Z,8.00
2019-05-26T02:31:57.519Z,8.00
2019-05-26T02:32:57.497Z,8.00
2019-05-26T02:33:57.448Z,8.00
2019-05-26T02:34:57.464Z,8.00
2019-05-26T02:35:57.422Z,12.00
2019-05-26T02:36:57.491Z,12.00
2019-05-26T02:37:57.428Z,12.00
2019-05-26T02:39:02.696Z,16.00
2019-05-26T02:39:58.382Z,16.00
2019-05-26T02:40:57.373Z,20.00
2019-05-26T02:41:57.360Z,20.00
2019-05-26T02:42:57.442Z,24.00
2019-05-26T02:43:57.337Z,28.00
2019-05-26T02:44:59.402Z,32.00
2019-05-26T02:45:57.318Z,32.00
2019-05-26T02:46:57.312Z,32.00
2019-05-26T02:47:57.335Z,40.00
2019-05-26T02:48:57.288Z,40.00
2019-05-26T02:49:57.269Z,44.00
2019-05-26T02:50:57.261Z,52.00
2019-05-26T02:51:57.268Z,52.00
2019-05-26T02:52:57.281Z,56.00
2019-05-26T02:53:57.231Z,56.00
2019-05-26T02:54:57.220Z,64.00
2019-05-26T02:55:57.206Z,68.00
2019-05-26T02:56:57.228Z,68.00
2019-05-26T02:57:57.231Z,76.00
2019-05-26T02:58:57.189Z,76.00
2019-05-26T02:59:57.178Z,84.00
2019-05-26T03:00:57.204Z,84.00
2019-05-26T03:02:03.957Z,92.00
2019-05-26T03:02:58.153Z,96.00
2019-05-26T03:03:57.123Z,108.00
2019-05-26T03:04:57.116Z,112.00
2019-05-26T03:05:57.105Z,116.00
2019-05-26T03:06:57.097Z,128.00
2019-05-26T03:07:57.113Z,132.00
2019-05-26T03:08:57.073Z,140.00
2019-05-26T03:09:57.065Z,148.00
2019-05-26T03:10:57.059Z,156.00
2019-05-26T03:11:57.042Z,168.00
2019-05-26T03:12:57.086Z,180.00
2019-05-26T03:13:57.014Z,192.00
2019-05-26T03:14:57.008Z,204.00
2019-05-26T03:15:56.993Z,216.00
2019-05-26T03:16:56.980Z,228.00
2019-05-26T03:17:57.012Z,240.00
2019-05-26T03:18:56.977Z,252.00
2019-05-26T03:19:56.955Z,264.00
2019-05-26T03:20:56.945Z,280.00
2019-05-26T03:21:56.938Z,288.00
2019-05-26T03:22:56.947Z,304.00
2019-05-26T03:23:56.917Z,316.00
2019-05-26T03:24:56.919Z,332.00
2019-05-26T03:25:56.885Z,344.00
2019-05-26T03:26:56.874Z,364.00
2019-05-26T03:27:56.865Z,388.00
2019-05-26T03:28:56.891Z,412.00
2019-05-26T03:29:56.844Z,444.00
2019-05-26T03:30:56.835Z,472.00
2019-05-26T03:31:56.849Z,496.00
2019-05-26T03:32:56.814Z,516.00
2019-05-26T03:33:56.833Z,540.00
2019-05-26T03:34:56.797Z,556.00
2019-05-26T03:35:56.810Z,556.00
2019-05-26T03:36:56.765Z,556.00
2019-05-26T03:37:56.793Z,560.00
2019-05-26T03:38:56.757Z,564.00
2019-05-26T03:39:56.734Z,576.00
2019-05-26T03:40:56.733Z,592.00
2019-05-26T03:41:56.733Z,612.00
2019-05-26T03:42:56.744Z,632.00
2019-05-26T03:43:56.771Z,660.00
2019-05-26T03:44:56.686Z,688.00
2019-05-26T03:45:56.670Z,724.00
2019-05-26T03:46:56.660Z,764.00
2019-05-26T03:47:56.687Z,808.00
2019-05-26T03:48:56.635Z,848.00
2019-05-26T03:49:56.652Z,892.00
2019-05-26T03:50:56.621Z,932.00
2019-05-26T03:51:56.611Z,956.00
2019-05-26T03:52:56.600Z,972.00
2019-05-26T03:53:56.616Z,984.00
2019-05-26T03:54:56.646Z,996.00
2019-05-26T03:55:56.569Z,1004.00
2019-05-26T03:56:56.554Z,1012.00
2019-05-26T03:57:56.548Z,1020.00
2019-05-26T03:58:56.529Z,1032.00
2019-05-26T03:59:56.556Z,1036.00
2019-05-26T04:00:56.506Z,1048.00
2019-05-26T04:01:57.738Z,1072.00
2019-05-26T04:02:56.521Z,1100.00
2019-05-26T04:03:56.511Z,1132.00
2019-05-26T04:04:56.545Z,1164.00
2019-05-26T04:05:56.449Z,1200.00
2019-05-26T04:06:56.444Z,1220.00
2019-05-26T04:07:56.487Z,1244.00
2019-05-26T04:08:56.452Z,1268.00
2019-05-26T04:10:04.444Z,1304.00
2019-05-26T04:10:57.397Z,1336.00
2019-05-26T04:11:56.381Z,1364.00
2019-05-26T04:12:56.379Z,1384.00
2019-05-26T04:13:56.421Z,1404.00
2019-05-26T04:14:56.411Z,1420.00
2019-05-26T04:15:56.350Z,1432.00
2019-05-26T04:16:56.554Z,1432.00
2019-05-26T04:17:56.352Z,1436.00
2019-05-26T04:18:56.307Z,1444.00
2019-05-26T04:19:56.295Z,1444.00
2019-05-26T04:20:56.282Z,1452.00
2019-05-26T04:21:56.284Z,1464.00
2019-05-26T04:22:56.309Z,1488.00
2019-05-26T04:23:56.257Z,1520.00
2019-05-26T04:24:56.249Z,1560.00
2019-05-26T04:25:56.264Z,1592.00
2019-05-26T04:26:56.238Z,1616.00
2019-05-26T04:27:56.212Z,1644.00
2019-05-26T04:28:56.204Z,1664.00
2019-05-26T04:29:56.184Z,1688.00
2019-05-26T04:30:56.173Z,1728.00
2019-05-26T04:32:01.010Z,1776.00
2019-05-26T04:32:57.153Z,1812.00
2019-05-26T04:33:56.145Z,1840.00
2019-05-26T04:34:56.133Z,1852.00
2019-05-26T04:35:56.128Z,1880.00
2019-05-26T04:36:56.148Z,1908.00
2019-05-26T04:37:56.102Z,1928.00
2019-05-26T04:38:56.089Z,1940.00
2019-05-26T04:39:56.077Z,1936.00
2019-05-26T04:40:56.094Z,1948.00
2019-05-26T04:41:56.095Z,1968.00
2019-05-26T04:42:56.048Z,1996.00
2019-05-26T04:43:56.037Z,2012.00
2019-05-26T04:44:56.021Z,2016.00
2019-05-26T04:45:56.021Z,2016.00
2019-05-26T04:46:56.040Z,2016.00
2019-05-26T04:47:55.996Z,2012.00
2019-05-26T04:48:55.984Z,2024.00
2019-05-26T04:49:55.966Z,2044.00
2019-05-26T04:50:55.965Z,2048.00
2019-05-26T04:51:55.988Z,2032.00
2019-05-26T04:53:06.295Z,2028.00
2019-05-26T04:53:56.964Z,2036.00
2019-05-26T04:54:55.917Z,2056.00
2019-05-26T04:55:55.909Z,2084.00
2019-05-26T04:56:55.897Z,2120.00
2019-05-26T04:57:55.914Z,2160.00
2019-05-26T04:58:55.907Z,2192.00
2019-05-26T04:59:55.876Z,2236.00
2019-05-26T05:00:55.851Z,2276.00
2019-05-26T05:01:55.847Z,2304.00
2019-05-26T05:02:55.826Z,2340.00
2019-05-26T05:03:55.851Z,2392.00
2019-05-26T05:04:55.805Z,2464.00
2019-05-26T05:05:55.799Z,2512.00
2019-05-26T05:06:55.791Z,2560.00
2019-05-26T05:07:55.810Z,2592.00
2019-05-26T05:08:55.764Z,2616.00
2019-05-26T05:09:55.751Z,2624.00
2019-05-26T05:10:55.737Z,2668.00
2019-05-26T05:11:55.725Z,2708.00
2019-05-26T05:12:55.715Z,2776.00
2019-05-26T05:13:55.756Z,2840.00
2019-05-26T05:14:55.698Z,2864.00
2019-05-26T05:15:55.682Z,2912.00
2019-05-26T05:16:55.672Z,2872.00
2019-05-26T05:17:55.668Z,2880.00
2019-05-26T05:18:55.678Z,3012.00
2019-05-26T05:19:55.664Z,2972.00
2019-05-26T05:20:55.635Z,2968.00
2019-05-26T05:21:55.616Z,3092.00
2019-05-26T05:22:55.606Z,3004.00
2019-05-26T05:23:55.630Z,3116.00
2019-05-26T05:24:55.584Z,3292.00
2019-05-26T05:25:55.577Z,3452.00
2019-05-26T05:26:55.570Z,3608.00
2019-05-26T05:27:55.557Z,3760.00
2019-05-26T05:28:55.568Z,3912.00
2019-05-26T05:29:55.530Z,4048.00
2019-05-26T05:30:55.517Z,4164.00
2019-05-26T05:31:55.514Z,4208.00
2019-05-26T05:32:55.503Z,4288.00
2019-05-26T05:33:55.523Z,4348.00
2019-05-26T05:34:55.478Z,4552.00
2019-05-26T05:35:55.464Z,4656.00
2019-05-26T05:36:55.453Z,4712.00
2019-05-26T05:37:55.452Z,4696.00
2019-05-26T05:38:55.476Z,4764.00
2019-05-26T05:39:55.427Z,4480.00
2019-05-26T05:40:59.932Z,4416.00
2019-05-26T05:41:56.401Z,4360.00
2019-05-26T05:42:55.388Z,4268.00
2019-05-26T05:43:55.412Z,4352.00
2019-05-26T05:44:55.832Z,4296.00
2019-05-26T05:45:55.400Z,4440.00
2019-05-26T05:46:55.357Z,4596.00
2019-05-26T05:48:04.318Z,4740.00
2019-05-26T05:48:55.368Z,4792.00
2019-05-26T05:49:55.328Z,4876.00
2019-05-26T05:50:55.329Z,5000.00
2019-05-26T05:51:55.296Z,5088.00
2019-05-26T05:52:55.301Z,5148.00
2019-05-26T05:53:55.308Z,5244.00
2019-05-26T05:54:55.261Z,5324.00
2019-05-26T05:55:55.256Z,5384.00
2019-05-26T05:56:55.856Z,5384.00
2019-05-26T05:57:55.236Z,5324.00
2019-05-26T05:58:55.258Z,5316.00
2019-05-26T05:59:55.213Z,5452.00
2019-05-26T06:00:55.197Z,5544.00
2019-05-26T06:01:55.195Z,5616.00
2019-05-26T06:02:55.183Z,5648.00
2019-05-26T06:03:55.202Z,5644.00
2019-05-26T06:04:55.152Z,5644.00
2019-05-26T06:05:55.144Z,5640.00
2019-05-26T06:06:55.138Z,5704.00
2019-05-26T06:07:55.130Z,5652.00
2019-05-26T06:08:55.153Z,5584.00
2019-05-26T06:09:55.114Z,5592.00
2019-05-26T06:10:55.094Z,5528.00
2019-05-26T06:11:57.024Z,5628.00
2019-05-26T06:12:55.069Z,5776.00
2019-05-26T06:13:55.077Z,5824.00
2019-05-26T06:14:55.043Z,5960.00
2019-05-26T06:15:55.043Z,6032.00
2019-05-26T06:16:55.029Z,6112.00
2019-05-26T06:17:55.018Z,6252.00
2019-05-26T06:18:55.025Z,6380.00
2019-05-26T06:19:54.996Z,6528.00
2019-05-26T06:20:54.987Z,6556.00
2019-05-26T06:21:54.979Z,6568.00
2019-05-26T06:22:54.967Z,6584.00
2019-05-26T06:23:54.982Z,6628.00
2019-05-26T06:24:54.940Z,6716.00
2019-05-26T06:25:54.929Z,6756.00
2019-05-26T06:26:54.923Z,6768.00
2019-05-26T06:27:54.910Z,6704.00
2019-05-26T06:28:54.935Z,6656.00
2019-05-26T06:29:58.971Z,6636.00
2019-05-26T06:30:54.881Z,6440.00
2019-05-26T06:31:55.372Z,6364.00
2019-05-26T06:32:54.852Z,6412.00
2019-05-26T06:33:54.846Z,6704.00
2019-05-26T06:34:54.858Z,6876.00
2019-05-26T06:35:54.821Z,6988.00
2019-05-26T06:36:54.809Z,7192.00
2019-05-26T06:37:54.798Z,7396.00
2019-05-26T06:38:54.787Z,7772.00
2019-05-26T06:39:54.819Z,7772.00
2019-05-26T06:40:54.775Z,7820.00
2019-05-26T06:41:54.760Z,7916.00
2019-05-26T06:42:54.755Z,8004.00
2019-05-26T06:43:54.743Z,7288.00
2019-05-26T06:44:54.768Z,7500.00
2019-05-26T06:45:54.781Z,8296.00
2019-05-26T06:46:54.703Z,8216.00
2019-05-26T06:47:54.698Z,8176.00
2019-05-26T06:48:54.685Z,8628.00
2019-05-26T06:49:54.692Z,8820.00
2019-05-26T06:50:54.662Z,9104.00
2019-05-26T06:51:54.654Z,9892.00
2019-05-26T06:52:54.655Z,10084.00
2019-05-26T06:53:54.636Z,10628.00
2019-05-26T06:54:54.657Z,11724.00
2019-05-26T06:55:54.606Z,11836.00
2019-05-26T06:56:54.597Z,11260.00
2019-05-26T06:57:54.586Z,11276.00
2019-05-26T06:58:54.575Z,12316.00
2019-05-26T06:59:54.603Z,12840.00
2019-05-26T07:00:54.564Z,13184.00
2019-05-26T07:01:54.545Z,12716.00
2019-05-26T07:02:54.535Z,12544.00
2019-05-26T07:03:54.530Z,11288.00
2019-05-26T07:04:54.544Z,11244.00
2019-05-26T07:05:54.506Z,10180.00
2019-05-26T07:06:54.492Z,13420.00
2019-05-26T07:07:54.475Z,13100.00
2019-05-26T07:08:54.465Z,12836.00
2019-05-26T07:09:54.509Z,13636.00
2019-05-26T07:10:54.443Z,14124.00
2019-05-26T07:11:59.834Z,13104.00
2019-05-26T07:12:55.426Z,12764.00
2019-05-26T07:13:54.421Z,13440.00
2019-05-26T07:14:54.441Z,12988.00
2019-05-26T07:15:54.406Z,14244.00
2019-05-26T07:16:54.380Z,13864.00
2019-05-26T07:17:54.371Z,13796.00
2019-05-26T07:18:54.358Z,13456.00
2019-05-26T07:19:54.405Z,13200.00
2019-05-26T07:20:54.432Z,13128.00
2019-05-26T07:21:54.327Z,12932.00
2019-05-26T07:22:54.320Z,13836.00
2019-05-26T07:23:54.311Z,14244.00
2019-05-26T07:24:54.333Z,14640.00
2019-05-26T07:25:54.288Z,16052.00
2019-05-26T07:26:54.293Z,17664.00
2019-05-26T07:27:54.260Z,23968.00
2019-05-26T07:28:54.276Z,27584.00
2019-05-26T07:29:54.293Z,22592.00
2019-05-26T07:30:54.230Z,28672.00
2019-05-26T07:31:54.224Z,27136.00
2019-05-26T07:32:54.212Z,25984.00
2019-05-26T07:33:54.202Z,28160.00
2019-05-26T07:34:54.231Z,31392.00
2019-05-26T07:35:54.212Z,26816.00
2019-05-26T07:36:54.206Z,29312.00
2019-05-26T07:37:54.161Z,30208.00
2019-05-26T07:38:54.149Z,31520.00
2019-05-26T07:39:54.176Z,31648.00
2019-05-26T07:40:54.140Z,31872.00
2019-05-26T07:42:09.219Z,31104.00
2019-05-26T07:42:55.109Z,28704.00
2019-05-26T07:43:54.185Z,31200.00
2019-05-26T07:44:54.119Z,32352.00
2019-05-26T07:45:54.077Z,32512.00
2019-05-26T07:46:54.085Z,29024.00
2019-05-26T07:47:54.053Z,29440.00
2019-05-26T07:48:54.037Z,25856.00
2019-05-26T07:49:54.068Z,26912.00
2019-05-26T07:50:54.020Z,26816.00
2019-05-26T07:51:54.013Z,26656.00
2019-05-26T07:52:54.003Z,27808.00
2019-05-26T07:53:56.121Z,29088.00
2019-05-26T07:54:54.073Z,29568.00
2019-05-26T07:55:53.969Z,27424.00
2019-05-26T07:56:53.965Z,26560.00
2019-05-26T07:57:53.949Z,26784.00
2019-05-26T07:58:53.937Z,28768.00
2019-05-26T07:59:53.941Z,26976.00
2019-05-26T08:00:53.911Z,26144.00
2019-05-26T08:01:54.029Z,25696.00
2019-05-26T08:02:53.891Z,27072.00
2019-05-26T08:03:53.897Z,28064.00
2019-05-26T08:04:53.905Z,25728.00
2019-05-26T08:05:53.861Z,22656.00
2019-05-26T08:06:53.897Z,24576.00
2019-05-26T08:07:53.924Z,21728.00
2019-05-26T08:08:53.831Z,15140.00
2019-05-26T08:09:53.967Z,13296.00
2019-05-26T08:10:53.877Z,14128.00
2019-05-26T08:11:53.855Z,10644.00
2019-05-26T08:12:53.851Z,10552.00
2019-05-26T08:13:53.806Z,9736.00
2019-05-26T08:14:54.843Z,10180.00
2019-05-26T08:15:53.795Z,9600.00
2019-05-26T08:16:53.787Z,15112.00
2019-05-26T08:17:53.827Z,17056.00
2019-05-26T08:18:53.790Z,29344.00
2019-05-26T08:19:53.731Z,20608.00
2019-05-26T08:20:53.742Z,12304.00
2019-05-26T08:21:54.669Z,9052.00
2019-05-26T08:22:53.769Z,10280.00
2019-05-26T08:23:53.686Z,11432.00
2019-05-26T08:24:53.670Z,12076.00
2019-05-26T08:25:53.717Z,13560.00
2019-05-26T08:26:53.649Z,18080.00
2019-05-26T08:27:53.635Z,31392.00
2019-05-26T08:28:53.648Z,32128.00
2019-05-26T08:29:53.608Z,30656.00
2019-05-26T08:30:53.651Z,29536.00
2019-05-26T08:31:53.584Z,30752.00
2019-05-26T08:32:53.572Z,31648.00
2019-05-26T08:33:53.736Z,28352.00
2019-05-26T08:34:53.608Z,15044.00
2019-05-26T08:35:53.599Z,12544.00
2019-05-26T08:36:53.546Z,12652.00
2019-05-26T08:37:53.585Z,18560.00
2019-05-26T08:38:53.517Z,29504.00
2019-05-26T08:39:53.498Z,36288.00
2019-05-26T08:40:53.620Z,38624.00
2019-05-26T08:41:53.534Z,30304.00
2019-05-26T08:42:53.473Z,33184.00
2019-05-26T08:43:53.455Z,40256.00
2019-05-26T08:44:53.447Z,40704.00
2019-05-26T08:45:53.456Z,40928.00
2019-05-26T08:46:53.422Z,42944.00
2019-05-26T08:47:53.444Z,44512.00
2019-05-26T08:48:53.412Z,46368.00
2019-05-26T08:49:53.430Z,48704.00
2019-05-26T08:50:53.406Z,50400.00
2019-05-26T08:51:53.369Z,50592.00
2019-05-26T08:52:53.363Z,45760.00
2019-05-26T08:53:53.462Z,54304.00
2019-05-26T08:54:53.343Z,59008.00
2019-05-26T08:55:53.370Z,55904.00
2019-05-26T08:56:53.338Z,54496.00
2019-05-26T08:57:53.352Z,55872.00
2019-05-26T08:58:53.296Z,55648.00
2019-05-26T08:59:53.298Z,55904.00
2019-05-26T09:00:53.413Z,59424.00
2019-05-26T09:01:53.269Z,61280.00
2019-05-26T09:02:53.296Z,46208.00
2019-05-26T09:03:53.261Z,65216.00
2019-05-26T09:04:53.244Z,66816.00
2019-05-26T09:05:53.224Z,65280.00
2019-05-26T09:06:53.222Z,66944.00
2019-05-26T09:07:53.284Z,64928.00
2019-05-26T09:08:53.208Z,63744.00
2019-05-26T09:09:53.191Z,64064.00
2019-05-26T09:10:53.199Z,67744.00
2019-05-26T09:11:53.163Z,72512.00
2019-05-26T09:13:00.936Z,75552.00
2019-05-26T09:13:54.232Z,72864.00
2019-05-26T09:14:53.147Z,73376.00
2019-05-26T09:15:53.159Z,75776.00
2019-05-26T09:16:53.117Z,74720.00
2019-05-26T09:17:53.146Z,76384.00
2019-05-26T09:18:53.131Z,77984.00
2019-05-26T09:19:53.095Z,21728.00
2019-05-26T09:20:53.093Z,64256.00
2019-05-26T09:21:53.071Z,57760.00
2019-05-26T09:22:53.069Z,20512.00
2019-05-26T09:23:53.083Z,19840.00
2019-05-26T09:24:53.036Z,18944.00
2019-05-26T09:25:53.062Z,16800.00
2019-05-26T09:26:53.016Z,61920.00
2019-05-26T09:27:53.008Z,72480.00
2019-05-26T09:28:52.998Z,17312.00
2019-05-26T09:29:52.983Z,15448.00
2019-05-26T09:30:53.006Z,14884.00
2019-05-26T09:31:52.974Z,19936.00
2019-05-26T09:32:52.972Z,12944.00
2019-05-26T09:33:52.951Z,37312.00
2019-05-26T09:34:52.939Z,12796.00
2019-05-26T09:35:53.426Z,13440.00
2019-05-26T09:36:52.943Z,23232.00
2019-05-26T09:37:52.904Z,9944.00
2019-05-26T09:38:52.905Z,12684.00
2019-05-26T09:39:53.072Z,55936.00
2019-05-26T09:40:52.896Z,60416.00
2019-05-26T09:41:52.864Z,17632.00
2019-05-26T09:42:52.854Z,71296.00
2019-05-26T09:43:52.840Z,12996.00
2019-05-26T09:44:52.843Z,10152.00
2019-05-26T09:45:52.860Z,13604.00
2019-05-26T09:46:52.828Z,13540.00
2019-05-26T09:47:52.798Z,59424.00
2019-05-26T09:48:52.787Z,61024.00
2019-05-26T09:49:52.800Z,18464.00
2019-05-26T09:50:52.803Z,15436.00
2019-05-26T09:51:52.761Z,16736.00
2019-05-26T09:52:52.776Z,14316.00
2019-05-26T09:54:01.380Z,67680.00
2019-05-26T09:54:53.726Z,78176.00
2019-05-26T09:55:52.717Z,76320.00
2019-05-26T09:56:52.728Z,19136.00
2019-05-26T09:57:52.705Z,15012.00
2019-05-26T09:58:52.698Z,47840.00
2019-05-26T09:59:52.678Z,74976.00
2019-05-26T10:00:52.673Z,82560.00
2019-05-26T10:01:52.693Z,83744.00
2019-05-26T10:02:52.652Z,78592.00
2019-05-26T10:03:52.637Z,70912.00
2019-05-26T10:04:52.626Z,66944.00
2019-05-26T10:05:52.617Z,70080.00
2019-05-26T10:06:52.642Z,27488.00
2019-05-26T10:07:52.592Z,57888.00
2019-05-26T10:08:52.591Z,58592.00
2019-05-26T10:09:53.381Z,63968.00
2019-05-26T10:10:52.645Z,68544.00
2019-05-26T10:11:52.579Z,18784.00
2019-05-26T10:12:52.577Z,65728.00
2019-05-26T10:13:52.538Z,23968.00
2019-05-26T10:14:52.669Z,58560.00
2019-05-26T10:15:52.608Z,66816.00
2019-05-26T10:16:53.301Z,18400.00
2019-05-26T10:17:52.557Z,25888.00
2019-05-26T10:18:52.544Z,66336.00
2019-05-26T10:19:52.530Z,63616.00
2019-05-26T10:20:52.462Z,51904.00
2019-05-26T10:21:52.472Z,22336.00
2019-05-26T10:22:52.444Z,41696.00
2019-05-26T10:23:53.324Z,41280.00
2019-05-26T10:24:52.426Z,45888.00
2019-05-26T10:25:52.418Z,43232.00
2019-05-26T10:26:52.439Z,43680.00
2019-05-26T10:27:52.435Z,42464.00
2019-05-26T10:28:52.400Z,37888.00
2019-05-26T10:29:52.376Z,28736.00
2019-05-26T10:30:52.362Z,24096.00
2019-05-26T10:31:52.389Z,22880.00
2019-05-26T10:32:52.399Z,21280.00
2019-05-26T10:33:52.347Z,15428.00
2019-05-26T10:34:52.317Z,9696.00
2019-05-26T10:35:52.314Z,7336.00
2019-05-26T10:36:52.337Z,12132.00
2019-05-26T10:37:52.292Z,17440.00
2019-05-26T10:38:52.323Z,18880.00
2019-05-26T10:39:52.273Z,17888.00
2019-05-26T10:40:52.254Z,14336.00
2019-05-26T10:41:52.263Z,16800.00
2019-05-26T10:42:52.249Z,18336.00
2019-05-26T10:43:52.233Z,17664.00
2019-05-26T10:44:52.220Z,17216.00
2019-05-26T10:45:52.943Z,15616.00
2019-05-26T10:46:52.217Z,15292.00
2019-05-26T10:47:52.185Z,13368.00
2019-05-26T10:48:52.172Z,11924.00
2019-05-26T10:49:52.172Z,13928.00
2019-05-26T10:50:52.158Z,15924.00
2019-05-26T10:51:52.183Z,17088.00
2019-05-26T10:52:52.140Z,17504.00
2019-05-26T10:53:52.142Z,18272.00
2019-05-26T10:54:52.117Z,18240.00
2019-05-26T10:55:52.120Z,17408.00
2019-05-26T10:56:52.156Z,18144.00
2019-05-26T10:57:52.122Z,18048.00
2019-05-26T10:58:52.117Z,17792.00
2019-05-26T10:59:52.102Z,16412.00
2019-05-26T11:00:52.358Z,13936.00
2019-05-26T11:01:52.205Z,13096.00
2019-05-26T11:02:52.096Z,14816.00
2019-05-26T11:03:52.128Z,12204.00
2019-05-26T11:04:52.045Z,11912.00
2019-05-26T11:05:52.044Z,14864.00
2019-05-26T11:06:52.080Z,17152.00
2019-05-26T11:07:52.109Z,16484.00
2019-05-26T11:08:52.046Z,14768.00
2019-05-26T11:09:52.090Z,14052.00
2019-05-26T11:10:51.972Z,14712.00
2019-05-26T11:11:52.138Z,13816.00
2019-05-26T11:12:52.074Z,11376.00
2019-05-26T11:14:02.585Z,10656.00
2019-05-26T11:14:52.906Z,9624.00
2019-05-26T11:15:51.898Z,9380.00
2019-05-26T11:16:51.944Z,16160.00
2019-05-26T11:17:51.897Z,18336.00
2019-05-26T11:18:51.878Z,17632.00
2019-05-26T11:19:51.898Z,16640.00
2019-05-26T11:20:51.839Z,16928.00
2019-05-26T11:21:51.884Z,16080.00
2019-05-26T11:22:51.843Z,15920.00
2019-05-26T11:23:51.878Z,15924.00
2019-05-26T11:24:52.479Z,14388.00
2019-05-26T11:25:51.863Z,12988.00
2019-05-26T11:26:51.929Z,11836.00
2019-05-26T11:27:51.893Z,10344.00
2019-05-26T11:28:51.764Z,10968.00
2019-05-26T11:29:51.752Z,12072.00
2019-05-26T11:30:51.743Z,12976.00
2019-05-26T11:31:51.850Z,13908.00
2019-05-26T11:32:51.735Z,14048.00
2019-05-26T11:33:51.761Z,13928.00
2019-05-26T11:35:01.089Z,14136.00
2019-05-26T11:35:53.403Z,13716.00
2019-05-26T11:36:51.756Z,14136.00
2019-05-26T11:37:51.839Z,15508.00
2019-05-26T11:38:51.661Z,15048.00
2019-05-26T11:39:51.725Z,14756.00
2019-05-26T11:40:51.715Z,14840.00
2019-05-26T11:41:55.004Z,15676.00
2019-05-26T11:42:51.676Z,17312.00
2019-05-26T11:43:51.652Z,14900.00
2019-05-26T11:44:51.707Z,13224.00
2019-05-26T11:45:51.590Z,13456.00
2019-05-26T11:46:51.560Z,14532.00
2019-05-26T11:47:51.697Z,14952.00
2019-05-26T11:48:51.656Z,16188.00
2019-05-26T11:49:51.564Z,14884.00
2019-05-26T11:50:51.693Z,13120.00
2019-05-26T11:51:51.600Z,11696.00
2019-05-26T11:52:51.573Z,11720.00
2019-05-26T11:53:51.495Z,12456.00
2019-05-26T11:54:51.488Z,13392.00
2019-05-26T11:55:51.610Z,13032.00
2019-05-26T11:56:51.483Z,12188.00
2019-05-26T11:57:51.491Z,12216.00
2019-05-26T11:58:51.468Z,12268.00
2019-05-26T11:59:51.483Z,11584.00
2019-05-26T12:00:51.429Z,11036.00
2019-05-26T12:01:51.429Z,10872.00
2019-05-26T12:02:51.454Z,10984.00
2019-05-26T12:03:51.423Z,11144.00
2019-05-26T12:04:51.445Z,11504.00
2019-05-26T12:05:51.381Z,12024.00
2019-05-26T12:06:51.349Z,12600.00
2019-05-26T12:07:51.391Z,12620.00
2019-05-26T12:08:51.363Z,12728.00
2019-05-26T12:09:51.320Z,13164.00
2019-05-26T12:10:51.311Z,13464.00
2019-05-26T12:11:51.327Z,13524.00
2019-05-26T12:12:51.358Z,13204.00
2019-05-26T12:13:51.286Z,13692.00